createdAt,value
2016-03-11T00:00:14.740Z,3.59
2016-03-11T00:01:27.492Z,3.67
2016-03-11T00:02:46.058Z,3.67
2016-03-11T00:03:42.654Z,3.61
2016-03-11T00:04:29.938Z,3.61
2016-03-11T00:05:49.176Z,3.63
2016-03-11T00:06:36.256Z,3.7
2016-03-11T00:07:55.664Z,3.66
2016-03-11T00:08:36.402Z,3.68
2016-03-11T00:10:01.327Z,3.74
2016-03-11T00:10:51.501Z,3.78
2016-03-11T00:11:45.192Z,3.68
2016-03-11T00:13:04.429Z,3.77
2016-03-11T00:13:45.228Z,3.71
2016-03-11T00:15:10.906Z,3.78
2016-03-11T00:15:54.765Z,3.84
2016-03-11T00:17:20.270Z,3.85
2016-03-11T00:18:04.161Z,3.88
2016-03-11T00:19:10.429Z,3.76
2016-03-11T00:20:04.791Z,3.86
2016-03-11T00:21:04.200Z,3.73
2016-03-11T00:22:10.453Z,3.73
2016-03-11T00:23:16.990Z,3.74
2016-03-11T00:24:04.224Z,3.76
2016-03-11T00:25:04.258Z,3.76
2016-03-11T00:26:10.510Z,3.76
2016-03-11T00:27:04.466Z,3.76
2016-03-11T00:28:04.282Z,3.77
2016-03-11T00:29:17.021Z,3.77
2016-03-11T00:30:04.334Z,3.74
2016-03-11T00:31:23.573Z,3.74
2016-03-11T00:32:04.542Z,3.77
2016-03-11T00:33:04.326Z,3.77
2016-03-11T00:34:04.360Z,3.74
2016-03-11T00:35:04.378Z,3.78
2016-03-11T00:36:04.398Z,3.73
2016-03-11T00:37:04.401Z,3.73
2016-03-11T00:38:10.903Z,3.74
2016-03-11T00:39:04.452Z,3.71
2016-03-11T00:40:23.520Z,3.7
2016-03-11T00:41:10.739Z,3.67
2016-03-11T00:42:04.601Z,3.78
2016-03-11T00:43:23.715Z,3.61
2016-03-11T00:44:04.622Z,3.63
2016-03-11T00:45:04.531Z,3.58
2016-03-11T00:46:17.267Z,3.67
2016-03-11T00:47:04.552Z,3.63
2016-03-11T00:48:04.570Z,3.63
2016-03-11T00:49:04.588Z,3.63
2016-03-11T00:50:10.903Z,3.59
2016-03-11T00:51:04.641Z,3.61
2016-03-11T00:52:04.612Z,3.64
2016-03-11T00:53:04.647Z,3.56
2016-03-11T00:54:04.634Z,3.64
2016-03-11T00:55:17.480Z,3.56
2016-03-11T00:56:10.952Z,3.58
2016-03-11T00:57:04.720Z,3.63
2016-03-11T00:58:04.707Z,3.58
2016-03-11T00:59:04.913Z,3.59
2016-03-11T01:00:04.759Z,3.66
2016-03-11T01:01:04.777Z,3.55
2016-03-11T01:02:04.764Z,3.59
2016-03-11T01:03:04.783Z,3.56
2016-03-11T01:04:05.427Z,3.58
2016-03-11T01:05:11.069Z,3.58
2016-03-11T01:06:04.854Z,3.66
2016-03-11T01:07:04.856Z,3.67
2016-03-11T01:08:06.296Z,3.68
2016-03-11T01:09:04.862Z,3.68
2016-03-11T01:10:04.910Z,3.67
2016-03-11T01:11:04.913Z,3.61
2016-03-11T01:12:11.213Z,3.56
2016-03-11T01:13:04.934Z,3.64
2016-03-11T01:14:05.531Z,3.63
2016-03-11T01:15:05.768Z,3.66
2016-03-11T01:16:05.021Z,3.7
2016-03-11T01:17:05.601Z,3.58
2016-03-11T01:18:08.042Z,3.68
2016-03-11T01:19:17.764Z,3.63
2016-03-11T01:20:05.017Z,3.66
2016-03-11T01:21:24.270Z,3.66
2016-03-11T01:22:17.772Z,3.68
2016-03-11T01:23:05.055Z,3.71
2016-03-11T01:24:17.808Z,3.59
2016-03-11T01:25:05.108Z,3.68
2016-03-11T01:26:30.767Z,3.67
2016-03-11T01:27:17.598Z,3.64
2016-03-11T01:28:36.462Z,3.64
2016-03-11T01:29:05.228Z,3.66
2016-03-11T01:30:05.184Z,3.64
2016-03-11T01:31:05.187Z,3.7
2016-03-11T01:32:05.220Z,3.64
2016-03-11T01:33:05.833Z,3.66
2016-03-11T01:34:24.414Z,3.64
2016-03-11T01:35:05.838Z,3.64
2016-03-11T01:36:31.028Z,3.63
2016-03-11T01:37:05.266Z,3.67
2016-03-11T01:38:36.596Z,3.66
2016-03-11T01:39:20.584Z,3.63
2016-03-11T01:40:20.571Z,3.59
2016-03-11T01:41:20.713Z,3.66
2016-03-11T01:42:26.857Z,3.64
2016-03-11T01:43:33.343Z,3.56
2016-03-11T01:44:20.613Z,3.58
2016-03-11T01:45:20.631Z,3.59
2016-03-11T01:46:20.633Z,3.61
2016-03-11T01:47:20.496Z,3.61
2016-03-11T01:48:20.685Z,3.58
2016-03-11T01:49:20.688Z,3.58
2016-03-11T01:50:33.581Z,3.59
2016-03-11T01:51:20.726Z,3.56
2016-03-11T01:52:39.931Z,3.55
2016-03-11T01:53:20.731Z,3.58
2016-03-11T01:54:20.858Z,3.58
2016-03-11T01:55:20.782Z,3.58
2016-03-11T01:56:22.253Z,3.52
2016-03-11T01:57:27.070Z,3.5
2016-03-11T01:58:20.822Z,3.52
2016-03-11T01:59:22.258Z,3.56
2016-03-11T02:00:20.860Z,3.5
2016-03-11T02:01:21.038Z,3.41
2016-03-11T02:02:33.578Z,3.4
2016-03-11T02:03:33.570Z,3.43
2016-03-11T02:04:46.500Z,3.37
2016-03-11T02:05:30.391Z,3.36
2016-03-11T02:07:52.669Z,3.3
2016-03-11T02:08:52.950Z,3.33
2016-03-11T02:09:52.716Z,3.26
2016-03-11T02:10:54.124Z,3.29
2016-03-11T02:11:59.016Z,3.27
2016-03-11T02:12:52.939Z,3.26
2016-03-11T02:14:05.487Z,3.26
2016-03-11T02:15:12.021Z,3.3
2016-03-11T02:15:52.898Z,3.29
2016-03-11T02:16:52.823Z,3.34
2016-03-11T02:17:52.808Z,3.4
2016-03-11T02:18:52.827Z,3.3
2016-03-11T02:19:52.861Z,3.43
2016-03-11T02:20:59.208Z,3.3
2016-03-11T02:21:59.179Z,3.26
2016-03-11T02:22:52.869Z,3.29
2016-03-11T02:24:05.700Z,3.24
2016-03-11T02:25:12.125Z,3.22
2016-03-11T02:26:12.190Z,3.21
2016-03-11T02:26:52.943Z,3.22
2016-03-11T02:28:55.573Z,3.16
2016-03-11T02:29:08.135Z,3.15
2016-03-11T02:30:08.201Z,3.21
2016-03-11T02:31:08.140Z,3.19
2016-03-11T02:32:20.956Z,3.11
2016-03-11T02:33:08.209Z,3.15
2016-03-11T02:34:08.305Z,3.09
2016-03-11T02:35:08.214Z,3.16
2016-03-11T02:36:08.217Z,3.05
2016-03-11T02:37:08.891Z,3.09
2016-03-11T02:38:08.270Z,3.03
2016-03-11T02:39:08.272Z,3.09
2016-03-11T02:40:08.275Z,3
2016-03-11T02:41:08.293Z,3.01
2016-03-11T02:42:08.905Z,3.11
2016-03-11T02:43:21.095Z,3.12
2016-03-11T02:44:08.332Z,3.16
2016-03-11T02:45:08.367Z,3.13
2016-03-11T02:46:07.884Z,3.09
2016-03-11T02:47:09.028Z,3.16
2016-03-11T02:48:08.405Z,3.15
2016-03-11T02:49:21.377Z,3.11
2016-03-11T02:50:08.427Z,3.19
2016-03-11T02:51:08.507Z,3.16
2016-03-11T02:52:11.572Z,3.11
2016-03-11T02:53:11.605Z,3.19
2016-03-11T02:54:11.765Z,3.16
2016-03-11T02:55:11.627Z,3.08
2016-03-11T02:56:17.974Z,3.15
2016-03-11T02:57:18.116Z,3
2016-03-11T02:58:11.776Z,3.05
2016-03-11T02:59:30.888Z,3.08
2016-03-11T03:00:11.718Z,3.11
2016-03-11T03:01:37.394Z,3.05
2016-03-11T03:02:11.755Z,2.98
2016-03-11T03:03:11.727Z,3.01
2016-03-11T03:04:11.776Z,3.06
2016-03-11T03:05:11.778Z,3.12
2016-03-11T03:06:18.375Z,3.09
2016-03-11T03:07:11.815Z,3.06
2016-03-11T03:08:11.818Z,3.11
2016-03-11T03:09:18.087Z,3.05
2016-03-11T03:10:11.870Z,3
2016-03-11T03:11:11.858Z,2.98
2016-03-11T03:12:19.579Z,2.97
2016-03-11T03:13:11.941Z,2.98
2016-03-11T03:14:11.912Z,2.97
2016-03-11T03:15:11.947Z,2.95
2016-03-11T03:16:11.933Z,2.97
2016-03-11T03:17:18.202Z,2.91
2016-03-11T03:18:11.954Z,2.97
2016-03-11T03:19:24.676Z,3.01
2016-03-11T03:20:11.992Z,2.95
2016-03-11T03:21:12.025Z,2.97
2016-03-11T03:22:18.278Z,2.98
2016-03-11T03:23:12.952Z,2.98
2016-03-11T03:24:24.814Z,3.01
2016-03-11T03:25:24.802Z,3
2016-03-11T03:26:12.070Z,3.03
2016-03-11T03:27:31.276Z,3.08
2016-03-11T03:28:12.310Z,3.08
2016-03-11T03:29:12.157Z,3.08
2016-03-11T03:30:12.127Z,3.06
2016-03-11T03:31:19.020Z,3.06
2016-03-11T03:32:12.133Z,3.06
2016-03-11T03:33:12.167Z,3.03
2016-03-11T03:34:12.841Z,3.01
2016-03-11T03:35:12.187Z,3
2016-03-11T03:36:24.926Z,3.03
2016-03-11T03:37:12.256Z,3.05
2016-03-11T03:38:12.212Z,3.03
2016-03-11T03:39:19.121Z,3
2016-03-11T03:40:12.248Z,3.09
2016-03-11T03:41:25.017Z,3.11
2016-03-11T03:42:12.317Z,3
2016-03-11T03:43:12.334Z,3.16
2016-03-11T03:44:12.322Z,3.12
2016-03-11T03:45:25.075Z,3.13
2016-03-11T03:46:12.373Z,3.12
2016-03-11T03:47:31.595Z,3.12
2016-03-11T03:48:25.175Z,3.13
2016-03-11T03:49:38.053Z,3.11
2016-03-11T03:50:38.088Z,3.12
2016-03-11T03:52:43.749Z,3.15
2016-03-11T03:53:18.705Z,3.13
2016-03-11T03:55:31.788Z,3.19
2016-03-11T03:56:15.666Z,3.15
2016-03-11T03:57:34.903Z,3.19
2016-03-11T03:58:16.296Z,3.21
2016-03-11T03:59:15.705Z,3.16
2016-03-11T04:00:28.458Z,3.21
2016-03-11T04:01:16.024Z,3.24
2016-03-11T04:02:16.480Z,3.24
2016-03-11T04:03:15.919Z,3.22
2016-03-11T04:04:28.515Z,3.22
2016-03-11T04:05:28.550Z,3.12
2016-03-11T04:06:15.818Z,3.15
2016-03-11T04:07:35.087Z,3.22
2016-03-11T04:08:15.823Z,3.21
2016-03-11T04:09:41.514Z,3.22
2016-03-11T04:10:15.860Z,3.19
2016-03-11T04:11:15.862Z,3.22
2016-03-11T04:12:28.756Z,3.18
2016-03-11T04:13:15.900Z,3.12
2016-03-11T04:14:28.714Z,3.03
2016-03-11T04:15:28.670Z,2.85
2016-03-11T04:16:16.001Z,2.83
2016-03-11T04:18:25.523Z,2.64
2016-03-11T04:19:25.572Z,2.61
2016-03-11T04:20:32.075Z,2.51
2016-03-11T04:21:26.171Z,2.51
2016-03-11T04:22:25.924Z,2.33
2016-03-11T04:23:27.005Z,2.21
2016-03-11T04:24:25.773Z,2.18
2016-03-11T04:25:38.338Z,2.12
2016-03-11T04:26:25.794Z,2.04
2016-03-11T04:27:44.843Z,1.95
2016-03-11T04:28:32.096Z,1.93
2016-03-11T04:29:56.961Z,1.85
2016-03-11T04:30:25.805Z,1.92
2016-03-11T04:31:25.713Z,1.82
2016-03-11T04:32:51.482Z,1.71
2016-03-11T04:33:35.329Z,1.61
2016-03-11T04:34:54.584Z,1.64
2016-03-11T04:35:35.365Z,1.56
2016-03-11T04:37:06.292Z,1.45
2016-03-11T04:37:35.385Z,1.4
2016-03-11T04:38:35.685Z,1.49
2016-03-11T04:39:35.438Z,1.4
2016-03-11T04:40:35.425Z,1.28
2016-03-11T04:41:48.209Z,1.25
2016-03-11T04:42:48.195Z,1.32
2016-03-11T04:43:54.670Z,1.31
2016-03-11T04:44:54.689Z,1.32
2016-03-11T04:45:35.501Z,1.25
2016-03-11T04:46:35.567Z,1.27
2016-03-11T04:47:48.304Z,1.27
2016-03-11T04:48:36.150Z,1.16
2016-03-11T04:50:01.234Z,1.21
2016-03-11T04:50:42.437Z,1.2
2016-03-11T04:52:01.285Z,1.18
2016-03-11T04:52:57.867Z,1.06
2016-03-11T04:53:45.211Z,1.1
2016-03-11T04:54:45.197Z,1.06
2016-03-11T04:55:45.200Z,1.02
2016-03-11T04:56:46.594Z,0.94
2016-03-11T04:57:45.205Z,0.91
2016-03-11T04:59:04.414Z,0.91
2016-03-11T04:59:45.227Z,0.81
2016-03-11T05:01:10.934Z,0.85
2016-03-11T05:01:51.559Z,0.7
2016-03-11T05:02:46.688Z,0.64
2016-03-11T05:03:46.799Z,0.63
2016-03-11T05:04:54.632Z,0.58
2016-03-11T05:05:58.043Z,0.42
2016-03-11T05:06:55.816Z,0.48
2016-03-11T05:07:45.566Z,0.42
2016-03-11T05:08:45.569Z,0.36
2016-03-11T05:09:45.385Z,0.37
2016-03-11T05:10:45.402Z,0.23
2016-03-11T05:11:45.374Z,0.31
2016-03-11T05:12:45.392Z,0.31
2016-03-11T05:13:45.395Z,0.2
2016-03-11T05:14:45.412Z,0.23
2016-03-11T05:15:46.260Z,0.16
2016-03-11T05:16:45.934Z,0.12
2016-03-11T05:17:45.593Z,0.15
2016-03-11T05:18:46.080Z,0.16
2016-03-11T05:19:45.614Z,0.16
2016-03-11T05:20:46.914Z,0.23
2016-03-11T05:21:45.556Z,0.19
2016-03-11T05:22:45.778Z,0.18
2016-03-11T05:23:45.687Z,0.24
2016-03-11T05:24:58.270Z,0.13
2016-03-11T05:25:45.927Z,0.15
2016-03-11T05:27:04.886Z,0.31
2016-03-11T05:27:48.839Z,0.36
2016-03-11T05:29:14.703Z,0.39
2016-03-11T05:29:49.172Z,0.37
2016-03-11T05:30:49.050Z,0.37
2016-03-11T05:32:01.759Z,0.4
2016-03-11T05:32:49.306Z,0.37
2016-03-11T05:34:08.139Z,0.42
2016-03-11T05:34:49.030Z,0.4
2016-03-11T05:35:48.922Z,0.55
2016-03-11T05:36:55.194Z,0.58
2016-03-11T05:37:48.897Z,0.63
2016-03-11T05:39:08.246Z,0.63
2016-03-11T05:39:48.918Z,0.58
2016-03-11T05:40:48.951Z,0.68
2016-03-11T05:41:49.096Z,0.7
2016-03-11T05:42:48.941Z,0.77
2016-03-11T05:43:49.288Z,0.73
2016-03-11T05:45:08.168Z,0.76
2016-03-11T05:45:49.152Z,0.81
2016-03-11T05:47:08.204Z,0.76
2016-03-11T05:47:49.173Z,0.7
2016-03-11T05:48:49.021Z,0.71
2016-03-11T05:49:49.382Z,0.64
2016-03-11T05:50:55.325Z,0.64
2016-03-11T05:51:49.215Z,0.67
2016-03-11T05:53:14.753Z,0.74
2016-03-11T05:53:49.190Z,0.68
2016-03-11T05:56:04.728Z,0.71
2016-03-11T05:57:04.732Z,0.77
2016-03-11T05:58:17.500Z,0.68
2016-03-11T05:59:04.831Z,0.67
2016-03-11T06:00:24.005Z,0.67
2016-03-11T06:01:08.133Z,0.68
2016-03-11T06:02:07.870Z,0.74
2016-03-11T06:03:07.936Z,0.81
2016-03-11T06:04:07.969Z,0.77
2016-03-11T06:05:08.535Z,0.78
2016-03-11T06:06:07.944Z,0.76
2016-03-11T06:07:07.978Z,0.81
2016-03-11T06:08:07.980Z,0.77
2016-03-11T06:09:07.967Z,0.73
2016-03-11T06:10:08.235Z,0.71
2016-03-11T06:11:08.035Z,0.74
2016-03-11T06:12:27.225Z,0.82
2016-03-11T06:13:36.993Z,0.76
2016-03-11T06:14:36.794Z,0.76
2016-03-11T06:15:15.015Z,0.81
2016-03-11T06:16:34.236Z,0.84
2016-03-11T06:17:15.129Z,0.88
2016-03-11T06:18:15.304Z,0.92
2016-03-11T06:19:15.072Z,0.95
2016-03-11T06:20:27.809Z,0.92
2016-03-11T06:21:15.249Z,0.89
2016-03-11T06:22:15.127Z,0.95
2016-03-11T06:23:15.334Z,1.06
2016-03-11T06:24:15.789Z,1.09
2016-03-11T06:25:15.370Z,1.07
2016-03-11T06:26:34.372Z,1.22
2016-03-11T06:27:21.297Z,1.18
2016-03-11T06:28:18.300Z,1.32
2016-03-11T06:29:18.317Z,1.39
2016-03-11T06:30:18.414Z,1.74
2016-03-11T06:31:18.355Z,1.98
2016-03-11T06:32:18.404Z,2.28
2016-03-11T06:33:31.078Z,2.52
2016-03-11T06:34:24.675Z,2.82
2016-03-11T06:35:18.365Z,2.98
2016-03-11T06:36:18.258Z,3.22
2016-03-11T06:37:18.386Z,3.46
2016-03-11T06:38:19.092Z,3.68
2016-03-11T06:39:25.141Z,4
2016-03-11T06:40:19.894Z,4.09
2016-03-11T06:41:18.444Z,4.1
2016-03-11T06:42:21.509Z,4.22
2016-03-11T06:43:18.933Z,4.43
2016-03-11T06:44:31.310Z,4.5
2016-03-11T06:45:32.204Z,4.6
2016-03-11T06:46:38.004Z,4.78
2016-03-11T06:47:44.335Z,4.83
2016-03-11T06:48:37.759Z,5.04
2016-03-11T06:49:18.574Z,5.1
2016-03-11T06:50:18.576Z,5.16
2016-03-11T06:51:18.642Z,5.46
2016-03-11T06:52:18.598Z,5.54
2016-03-11T06:53:18.601Z,5.72
2016-03-11T06:54:24.901Z,5.8
2016-03-11T06:55:19.404Z,5.73
2016-03-11T06:56:18.953Z,5.58
2016-03-11T06:57:31.456Z,5.73
2016-03-11T06:58:20.131Z,5.84
2016-03-11T06:59:31.477Z,6.07
2016-03-11T07:00:19.417Z,6.29
2016-03-11T07:01:38.248Z,6.41
2016-03-11T07:02:19.609Z,6.5
2016-03-11T07:03:50.112Z,6.74
2016-03-11T07:04:28.661Z,6.6
2016-03-11T07:05:59.792Z,6.7
2016-03-11T07:06:44.058Z,6.38
2016-03-11T07:07:43.889Z,6.1
2016-03-11T07:08:50.782Z,5.65
2016-03-11T07:09:44.160Z,5.65
2016-03-11T07:11:03.446Z,5.58
2016-03-11T07:11:44.555Z,5.44
2016-03-11T07:12:44.230Z,5.05
2016-03-11T07:13:45.421Z,4.64
2016-03-11T07:14:44.111Z,4.61
2016-03-11T07:15:56.819Z,4.94
2016-03-11T07:16:44.054Z,5.12
2016-03-11T07:18:03.341Z,5.49
2016-03-11T07:18:47.341Z,5.62
2016-03-11T07:20:06.580Z,6.05
2016-03-11T07:21:16.176Z,6.16
2016-03-11T07:22:09.788Z,6.06
2016-03-11T07:22:50.632Z,6.17
2016-03-11T07:24:16.248Z,6.16
2016-03-11T07:24:50.748Z,6.1
2016-03-11T07:27:05.723Z,6.38
2016-03-11T07:28:05.820Z,6.46
2016-03-11T07:29:07.198Z,6.57
2016-03-11T07:30:18.514Z,6.78
2016-03-11T07:31:07.469Z,6.87
2016-03-11T07:32:18.565Z,6.62
2016-03-11T07:33:07.568Z,6.67
2016-03-11T07:34:25.055Z,6.74
2016-03-11T07:35:18.698Z,6.9
2016-03-11T07:36:31.575Z,6.95
2016-03-11T07:37:31.563Z,6.97
2016-03-11T07:38:32.238Z,7.1
2016-03-11T07:40:47.055Z,6.41
2016-03-11T07:41:47.074Z,6.16
2016-03-11T07:42:56.892Z,5.7
2016-03-11T07:45:12.288Z,5.1
2016-03-11T07:46:12.275Z,4.86
2016-03-11T07:47:18.809Z,4.68
2016-03-11T07:48:12.515Z,4.61
2016-03-11T07:49:25.189Z,4.52
2016-03-11T07:50:25.068Z,4.56
2016-03-11T07:51:31.632Z,4.56
2016-03-11T07:52:31.588Z,4.63
2016-03-11T07:54:35.062Z,4.68
2016-03-11T07:54:47.859Z,4.64
2016-03-11T07:55:47.689Z,4.67
2016-03-11T07:57:00.382Z,4.7
2016-03-11T07:57:47.664Z,4.63
2016-03-11T07:59:06.887Z,4.64
2016-03-11T07:59:50.762Z,4.67
2016-03-11T08:01:16.503Z,4.46
2016-03-11T08:02:00.599Z,4.45
2016-03-11T08:03:26.290Z,4.4
2016-03-11T08:04:00.870Z,4.42
2016-03-11T08:06:13.703Z,4.74
2016-03-11T08:07:00.659Z,4.75
2016-03-11T08:08:26.350Z,4.67
2016-03-11T08:09:04.634Z,4.79
2016-03-11T08:10:35.964Z,4.95
2016-03-11T08:11:20.061Z,4.97
2016-03-11T08:12:19.908Z,5.15
2016-03-11T08:13:32.692Z,5.47
2016-03-11T08:14:39.366Z,5.55
2016-03-11T08:15:39.275Z,5.79
2016-03-11T08:16:46.247Z,5.79
2016-03-11T08:17:45.702Z,5.62
2016-03-11T08:19:00.896Z,5.55
2016-03-11T08:20:00.913Z,5.61
2016-03-11T08:21:00.932Z,5.37
2016-03-11T08:22:07.232Z,5.2
2016-03-11T08:23:02.374Z,5.19
2016-03-11T08:24:14.330Z,5.31
2016-03-11T08:25:01.223Z,5.34
2016-03-11T08:27:03.620Z,5.19
2016-03-11T08:27:17.667Z,5.2
2016-03-11T08:28:17.606Z,5.18
2016-03-11T08:29:18.187Z,5.33
2016-03-11T08:30:30.378Z,5.46
2016-03-11T08:31:17.740Z,5.49
2016-03-11T08:32:43.367Z,5.49
2016-03-11T08:33:17.745Z,5.54
2016-03-11T08:35:32.906Z,5.79
2016-03-11T08:36:32.909Z,5.9
2016-03-11T08:37:39.224Z,5.84
2016-03-11T08:38:45.697Z,5.76
2016-03-11T08:39:45.902Z,5.62
2016-03-11T08:40:52.170Z,5.69
2016-03-11T08:41:58.207Z,5.79
2016-03-11T08:43:10.835Z,5.95
2016-03-11T08:44:39.102Z,5.8
2016-03-11T08:45:54.574Z,5.91
2016-03-11T08:46:29.624Z,5.97
2016-03-11T08:48:36.051Z,6.09
2016-03-11T08:49:23.351Z,6.02
2016-03-11T08:50:23.494Z,6.1
2016-03-11T08:51:23.575Z,5.98
2016-03-11T08:52:29.655Z,5.9
2016-03-11T08:53:36.174Z,5.95
2016-03-11T08:54:36.254Z,6.02
2016-03-11T08:55:42.710Z,5.84
2016-03-11T08:56:42.698Z,5.76
2016-03-11T08:58:20.468Z,6.02
2016-03-11T08:58:58.706Z,6.1
2016-03-11T09:00:17.974Z,6.05
2016-03-11T09:01:01.711Z,6.07
2016-03-11T09:02:01.947Z,5.97
2016-03-11T09:03:01.889Z,5.97
2016-03-11T09:05:11.486Z,6.09
2016-03-11T09:06:11.567Z,6.15
2016-03-11T09:07:11.695Z,6.32
2016-03-11T09:08:11.589Z,6.39
2016-03-11T09:09:18.122Z,6.35
2016-03-11T09:10:18.032Z,6.19
2016-03-11T09:11:24.550Z,6.1
2016-03-11T09:12:10.959Z,6.13
2016-03-11T09:13:11.649Z,6.06
2016-03-11T09:14:11.855Z,6.07
2016-03-11T09:15:11.686Z,6.01
2016-03-11T09:16:11.658Z,6.05
2016-03-11T09:17:11.816Z,5.95
2016-03-11T09:18:17.975Z,5.91
2016-03-11T09:19:11.774Z,5.8
2016-03-11T09:20:24.512Z,5.8
2016-03-11T09:21:11.796Z,5.74
2016-03-11T09:23:21.395Z,5.9
2016-03-11T09:24:21.382Z,5.59
2016-03-11T09:25:21.510Z,5.56
2016-03-11T09:26:21.418Z,5.56
2016-03-11T09:27:21.515Z,5.52
2016-03-11T09:28:34.409Z,5.56
2016-03-11T09:29:34.193Z,5.49
2016-03-11T09:30:47.617Z,5.44
2016-03-11T09:31:31.589Z,5.4
2016-03-11T09:33:41.109Z,5.46
2016-03-11T09:34:41.080Z,5.47
2016-03-11T09:35:41.990Z,5.4
2016-03-11T09:36:53.930Z,5.31
2016-03-11T09:37:41.136Z,5.28
2016-03-11T09:39:51.017Z,5.18
2016-03-11T09:41:03.741Z,5.1
2016-03-11T09:41:51.006Z,5.15
2016-03-11T09:43:10.199Z,5.25
2016-03-11T09:43:51.011Z,5.26
2016-03-11T09:45:22.344Z,5.31
2016-03-11T09:46:00.660Z,5.37
2016-03-11T09:47:00.897Z,5.54
2016-03-11T09:48:07.321Z,5.52
2016-03-11T09:49:00.887Z,5.47
2016-03-11T09:50:19.889Z,5.46
2016-03-11T09:51:06.814Z,5.47
2016-03-11T09:52:04.005Z,5.44
2016-03-11T09:53:06.866Z,5.64
2016-03-11T09:54:04.166Z,5.54
2016-03-11T09:55:16.591Z,5.59
2016-03-11T09:56:04.124Z,5.4
2016-03-11T09:57:23.314Z,5.29
2016-03-11T09:58:03.943Z,5.37
2016-03-11T09:59:35.210Z,5.13
2016-03-11T10:00:13.885Z,5.02
2016-03-11T10:01:13.481Z,5.02
2016-03-11T10:02:30.297Z,5
2016-03-11T10:03:17.940Z,5
2016-03-11T10:04:17.598Z,5.1
2016-03-11T10:05:50.336Z,5.01
2016-03-11T10:06:18.267Z,4.95
2016-03-11T10:07:17.754Z,4.98
2016-03-11T10:08:17.647Z,5.05
2016-03-11T10:09:18.259Z,5.18
2016-03-11T10:10:30.387Z,5.33
2016-03-11T10:11:30.639Z,5.34
2016-03-11T10:12:17.673Z,5.47
2016-03-11T10:13:18.035Z,5.33
2016-03-11T10:14:17.710Z,5.43
2016-03-11T10:15:17.884Z,5.41
2016-03-11T10:16:30.589Z,5.43
2016-03-11T10:17:37.437Z,5.62
2016-03-11T10:18:21.393Z,5.58
2016-03-11T10:19:21.567Z,5.54
2016-03-11T10:20:21.429Z,5.46
2016-03-11T10:21:28.183Z,5.47
2016-03-11T10:22:34.231Z,5.31
2016-03-11T10:23:34.249Z,5.49
2016-03-11T10:24:41.143Z,5.44
2016-03-11T10:25:47.224Z,5.47
2016-03-11T10:26:21.524Z,5.46
2016-03-11T10:27:21.588Z,5.46
2016-03-11T10:28:21.685Z,5.49
2016-03-11T10:29:31.140Z,5.41
2016-03-11T10:30:31.581Z,5.61
2016-03-11T10:31:44.224Z,5.47
2016-03-11T10:32:31.382Z,5.38
2016-03-11T10:34:28.279Z,5.44
2016-03-11T10:34:54.420Z,5.55
2016-03-11T10:35:54.407Z,5.58
2016-03-11T10:36:54.378Z,5.54
2016-03-11T10:37:54.990Z,5.59
2016-03-11T10:38:54.665Z,5.87
2016-03-11T10:39:54.417Z,5.79
2016-03-11T10:40:55.109Z,5.74
2016-03-11T10:41:54.470Z,5.79
2016-03-11T10:43:07.209Z,5.43
2016-03-11T10:43:54.506Z,5.43
2016-03-11T10:45:13.700Z,5.61
2016-03-11T10:46:07.264Z,5.81
2016-03-11T10:46:54.780Z,5.76
2016-03-11T10:47:54.831Z,6.02
2016-03-11T10:48:54.708Z,5.98
2016-03-11T10:49:54.632Z,5.99
2016-03-11T10:50:55.463Z,6.1
2016-03-11T10:51:54.638Z,6.34
2016-03-11T10:52:54.703Z,6.52
2016-03-11T10:53:55.189Z,6.72
2016-03-11T10:55:13.945Z,6.47
2016-03-11T10:55:55.352Z,6.57
2016-03-11T10:57:26.247Z,6.8
2016-03-11T10:58:29.593Z,6.83
2016-03-11T10:59:36.035Z,6.82
2016-03-11T11:00:45.615Z,6.82
2016-03-11T11:01:29.555Z,6.74
2016-03-11T11:02:29.588Z,6.92
2016-03-11T11:03:30.529Z,6.9
2016-03-11T11:04:42.376Z,6.97
2016-03-11T11:05:42.589Z,7.21
2016-03-11T11:07:52.269Z,7.58
2016-03-11T11:08:36.350Z,7.84
2016-03-11T11:11:42.890Z,7.93
2016-03-11T11:12:42.762Z,7.77
2016-03-11T11:16:01.069Z,8.08
2016-03-11T11:16:33.147Z,7.88
2016-03-11T11:18:48.648Z,8.01
2016-03-11T11:19:48.821Z,8.05
2016-03-11T11:20:49.213Z,8.13
2016-03-11T11:22:01.373Z,8.01
2016-03-11T11:23:01.610Z,7.93
2016-03-11T11:24:08.127Z,8.09
2016-03-11T11:24:52.221Z,7.85
2016-03-11T11:26:17.679Z,7.77
2016-03-11T11:27:27.227Z,7.72
2016-03-11T11:28:01.651Z,7.77
2016-03-11T11:29:01.873Z,8.02
2016-03-11T11:30:01.875Z,8.13
2016-03-11T11:31:14.363Z,8.16
2016-03-11T11:32:07.974Z,8.31
2016-03-11T11:33:21.086Z,8.5
2016-03-11T11:34:08.043Z,8.57
2016-03-11T11:35:33.029Z,8.31
2016-03-11T11:36:14.531Z,8.31
2016-03-11T11:37:33.066Z,8.17
2016-03-11T11:38:21.006Z,7.91
2016-03-11T11:39:01.790Z,7.83
2016-03-11T11:40:27.495Z,7.32
2016-03-11T11:41:11.655Z,7.03
2016-03-11T11:42:11.689Z,6.89
2016-03-11T11:43:42.738Z,6.65
2016-03-11T11:44:26.881Z,6.47
2016-03-11T11:45:26.712Z,6.19
2016-03-11T11:46:58.077Z,6.2
2016-03-11T11:47:32.952Z,6.19
2016-03-11T11:48:26.986Z,6.09
2016-03-11T11:49:45.910Z,6.07
2016-03-11T11:50:36.116Z,6.06
2016-03-11T11:51:49.260Z,5.97
2016-03-11T11:52:33.356Z,5.87
2016-03-11T11:53:59.315Z,5.77
2016-03-11T11:54:37.690Z,5.8
2016-03-11T11:56:03.274Z,5.84
2016-03-11T11:56:41.602Z,5.9
2016-03-11T11:58:12.966Z,5.98
2016-03-11T11:58:51.294Z,6.05
2016-03-11T11:59:51.297Z,6.13
2016-03-11T12:01:04.005Z,6.01
2016-03-11T12:01:51.334Z,6.05
2016-03-11T12:03:10.793Z,6.12
2016-03-11T12:03:52.777Z,6.29
2016-03-11T12:05:22.688Z,6.52
2016-03-11T12:06:04.159Z,6.75
2016-03-11T12:06:51.378Z,6.97
2016-03-11T12:08:04.165Z,7.22
2016-03-11T12:09:04.151Z,7.23
2016-03-11T12:09:51.448Z,7.13
2016-03-11T12:11:10.736Z,7.03
2016-03-11T12:11:53.173Z,6.95
2016-03-11T12:13:17.242Z,6.87
2016-03-11T12:14:01.306Z,6.85
2016-03-11T12:15:26.934Z,7
2016-03-11T12:16:36.483Z,7.01
2016-03-11T12:17:20.611Z,6.72
2016-03-11T12:19:30.647Z,7.11
2016-03-11T12:20:30.369Z,6.89
2016-03-11T12:21:31.778Z,6.92
2016-03-11T12:22:49.672Z,7.04
2016-03-11T12:24:01.692Z,7.18
2016-03-11T12:24:36.661Z,7.26
2016-03-11T12:25:30.492Z,7.55
2016-03-11T12:28:05.827Z,7.66
2016-03-11T12:29:05.815Z,7.46
2016-03-11T12:30:05.880Z,7.4
2016-03-11T12:31:05.899Z,7.62
2016-03-11T12:32:18.620Z,8.03
2016-03-11T12:33:07.263Z,8.09
2016-03-11T12:34:25.157Z,7.81
2016-03-11T12:35:06.129Z,7.75
2016-03-11T12:36:25.146Z,7.8
2016-03-11T12:37:12.259Z,7.96
2016-03-11T12:39:21.186Z,8.16
2016-03-11T12:40:21.485Z,8.28
2016-03-11T12:41:20.847Z,8.23
2016-03-11T12:42:21.334Z,8.08
2016-03-11T12:43:34.055Z,8.11
2016-03-11T12:44:21.387Z,8.27
2016-03-11T12:45:46.983Z,7.84
2016-03-11T12:46:27.845Z,7.46
2016-03-11T12:47:21.426Z,7.36
2016-03-11T12:48:34.116Z,7.43
2016-03-11T12:49:21.728Z,7.46
2016-03-11T12:50:34.341Z,7.66
2016-03-11T12:51:21.422Z,7.58
2016-03-11T12:52:22.908Z,7.55
2016-03-11T12:53:21.474Z,7.7
2016-03-11T12:54:37.305Z,7.75
2016-03-11T12:55:22.916Z,7.59
2016-03-11T12:56:47.216Z,7.78
2016-03-11T12:57:34.297Z,7.53
2016-03-11T12:58:53.690Z,7.29
2016-03-11T12:59:34.302Z,7.28
2016-03-11T13:00:21.742Z,7.36
2016-03-11T13:01:41.104Z,7.32
2016-03-11T13:02:21.669Z,7.44
2016-03-11T13:03:47.343Z,7.74
2016-03-11T13:04:34.846Z,7.85
2016-03-11T13:05:53.006Z,7.53
2016-03-11T13:06:40.962Z,7.56
2016-03-11T13:07:22.042Z,7.28
2016-03-11T13:08:21.732Z,7.21
2016-03-11T13:09:34.579Z,7.05
2016-03-11T13:10:53.285Z,7.15
2016-03-11T13:11:28.131Z,7.04
2016-03-11T13:12:22.493Z,6.96
2016-03-11T13:13:34.699Z,6.8
2016-03-11T13:14:34.655Z,6.9
2016-03-11T13:15:41.704Z,6.77
2016-03-11T13:16:41.098Z,6.8
2016-03-11T13:17:22.131Z,6.8
2016-03-11T13:18:21.931Z,6.87
2016-03-11T13:19:21.964Z,6.9
2016-03-11T13:20:22.421Z,7.08
2016-03-11T13:21:21.970Z,7.26
2016-03-11T13:22:22.097Z,7.32
2016-03-11T13:23:34.757Z,7.53
2016-03-11T13:24:22.057Z,7.77
2016-03-11T13:25:22.028Z,7.72
2016-03-11T13:26:22.563Z,7.81
2016-03-11T13:27:28.361Z,7.83
2016-03-11T13:28:22.193Z,7.69
2016-03-11T13:29:41.571Z,7.77
2016-03-11T13:30:22.152Z,7.88
2016-03-11T13:31:22.169Z,7.74
2016-03-11T13:32:22.391Z,7.93
2016-03-11T13:33:22.206Z,7.96
2016-03-11T13:34:22.240Z,8.06
2016-03-11T13:35:22.243Z,8.18
2016-03-11T13:36:35.182Z,8.28
2016-03-11T13:37:22.592Z,8.41
2016-03-11T13:38:22.407Z,8.5
2016-03-11T13:39:22.612Z,8.68
2016-03-11T13:40:28.631Z,8.72
2016-03-11T13:41:22.384Z,8.74
2016-03-11T13:42:22.371Z,8.89
2016-03-11T13:43:22.639Z,8.66
2016-03-11T13:44:28.782Z,8.52
2016-03-11T13:45:41.739Z,8.46
2016-03-11T13:46:23.256Z,8.39
2016-03-11T13:47:22.462Z,8.38
2016-03-11T13:48:22.887Z,8.5
2016-03-11T13:49:22.780Z,8.46
2016-03-11T13:50:22.580Z,8.26
2016-03-11T13:51:22.817Z,8.13
2016-03-11T13:52:22.664Z,8.08
2016-03-11T13:53:23.385Z,8.06
2016-03-11T13:54:22.872Z,8.03
2016-03-11T13:55:22.608Z,7.99
2016-03-11T13:56:22.830Z,8.01
2016-03-11T13:57:23.177Z,7.87
2016-03-11T13:58:35.429Z,7.84
2016-03-11T13:59:24.135Z,7.84